sensor_id;sensor_type;location;lat;lon;timestamp;pressure;altitude;pressure_sealevel;temperature;humidity
56241;BME280;42155;53.096;23.226;2023-03-31T00:00:17;98723.16;;;7.59;77.07
56241;BME280;42155;53.096;23.226;2023-03-31T00:02:17;98728.13;;;7.62;76.75
56241;BME280;42155;53.096;23.226;2023-03-31T00:04:18;98711.19;;;7.55;77.44
56241;BME280;42155;53.096;23.226;2023-03-31T00:06:18;98726.06;;;7.56;77.13
56241;BME280;42155;53.096;23.226;2023-03-31T00:08:19;98672.59;;;7.24;77.63
56241;BME280;42155;53.096;23.226;2023-03-31T00:10:20;98696.41;;;7.43;77.62
56241;BME280;42155;53.096;23.226;2023-03-31T00:12:20;98716.47;;;7.55;77.53
56241;BME280;42155;53.096;23.226;2023-03-31T00:14:21;98712.84;;;7.56;78.05
56241;BME280;42155;53.096;23.226;2023-03-31T00:16:21;98691.69;;;7.37;77.67
56241;BME280;42155;53.096;23.226;2023-03-31T00:18:21;98711.88;;;7.57;78.19
56241;BME280;42155;53.096;23.226;2023-03-31T00:20:22;98682.28;;;7.44;77.99
56241;BME280;42155;53.096;23.226;2023-03-31T00:22:22;98674.78;;;7.49;77.75
56241;BME280;42155;53.096;23.226;2023-03-31T00:24:22;98676.69;;;7.47;78.25
56241;BME280;42155;53.096;23.226;2023-03-31T00:26:25;98691.47;;;7.59;78.36
56241;BME280;42155;53.096;23.226;2023-03-31T00:28:25;98667.81;;;7.48;77.77
56241;BME280;42155;53.096;23.226;2023-03-31T00:30:25;98648.06;;;7.33;78.09
56241;BME280;42155;53.096;23.226;2023-03-31T00:32:26;98689.81;;;7.58;78.12
56241;BME280;42155;53.096;23.226;2023-03-31T00:34:27;98702.03;;;7.59;78.57
56241;BME280;42155;53.096;23.226;2023-03-31T00:36:27;98689.81;;;7.58;78.20
56241;BME280;42155;53.096;23.226;2023-03-31T00:38:28;98696.03;;;7.57;78.14
56241;BME280;42155;53.096;23.226;2023-03-31T00:40:28;98682.28;;;7.54;78.90
56241;BME280;42155;53.096;23.226;2023-03-31T00:42:29;98686.44;;;7.56;79.00
56241;BME280;42155;53.096;23.226;2023-03-31T00:44:29;98678.69;;;7.55;78.70
56241;BME280;42155;53.096;23.226;2023-03-31T00:48:48;98672.56;;;7.54;79.32
56241;BME280;42155;53.096;23.226;2023-03-31T00:50:54;98672.81;;;7.51;79.26
56241;BME280;42155;53.096;23.226;2023-03-31T00:52:57;98671.72;;;7.54;79.56
56241;BME280;42155;53.096;23.226;2023-03-31T00:55:06;98669.50;;;7.49;79.24
56241;BME280;42155;53.096;23.226;2023-03-31T00:57:08;98669.50;;;7.49;78.85
56241;BME280;42155;53.096;23.226;2023-03-31T00:59:10;98684.94;;;7.54;79.31
56241;BME280;42155;53.096;23.226;2023-03-31T01:01:14;98675.19;;;7.54;79.32
56241;BME280;42155;53.096;23.226;2023-03-31T01:03:15;98674.22;;;7.55;79.36
56241;BME280;42155;53.096;23.226;2023-03-31T01:05:17;98677.28;;;7.60;79.51
56241;BME280;42155;53.096;23.226;2023-03-31T01:07:23;98675.63;;;7.59;79.22
56241;BME280;42155;53.096;23.226;2023-03-31T01:09:28;98662.94;;;7.53;79.47
56241;BME280;42155;53.096;23.226;2023-03-31T01:11:29;98667.72;;;7.59;79.39
56241;BME280;42155;53.096;23.226;2023-03-31T01:13:30;98664.50;;;7.56;79.39
56241;BME280;42155;53.096;23.226;2023-03-31T01:15:30;98667.00;;;7.57;79.80
56241;BME280;42155;53.096;23.226;2023-03-31T01:17:31;98661.44;;;7.60;79.85
56241;BME280;42155;53.096;23.226;2023-03-31T01:27:11;98654.50;;;7.59;80.41
56241;BME280;42155;53.096;23.226;2023-03-31T01:48:31;98623.09;;;7.56;80.84
56241;BME280;42155;53.096;23.226;2023-03-31T01:50:35;98614.47;;;7.54;80.82
56241;BME280;42155;53.096;23.226;2023-03-31T01:52:46;98611.84;;;7.54;81.13
56241;BME280;42155;53.096;23.226;2023-03-31T01:54:54;98594.19;;;7.45;80.95
56241;BME280;42155;53.096;23.226;2023-03-31T01:57:52;98615.88;;;7.58;81.34
56241;BME280;42155;53.096;23.226;2023-03-31T01:59:29;98613.94;;;7.60;80.74
56241;BME280;42155;53.096;23.226;2023-03-31T02:01:38;98602.38;;;7.61;81.23
56241;BME280;42155;53.096;23.226;2023-03-31T02:03:47;98610.03;;;7.64;80.59
56241;BME280;42155;53.096;23.226;2023-03-31T02:05:55;98608.09;;;7.66;81.13
56241;BME280;42155;53.096;23.226;2023-03-31T02:08:09;98594.19;;;7.64;81.07
56241;BME280;42155;53.096;23.226;2023-03-31T02:10:13;98557.25;;;7.45;80.88
56241;BME280;42155;53.096;23.226;2023-03-31T02:12:15;98595.28;;;7.72;81.15
56241;BME280;42155;53.096;23.226;2023-03-31T02:14:22;98597.00;;;7.73;81.43
56241;BME280;42155;53.096;23.226;2023-03-31T02:16:25;98569.19;;;7.59;81.26
56241;BME280;42155;53.096;23.226;2023-03-31T02:18:29;98589.75;;;7.75;81.43
56241;BME280;42155;53.096;23.226;2023-03-31T02:20:30;98582.38;;;7.78;81.39
56241;BME280;42155;53.096;23.226;2023-03-31T02:22:35;98558.34;;;7.62;81.22
56241;BME280;42155;53.096;23.226;2023-03-31T02:24:37;98570.28;;;7.76;81.10
56241;BME280;42155;53.096;23.226;2023-03-31T02:27:01;98573.06;;;7.74;81.67
56241;BME280;42155;53.096;23.226;2023-03-31T02:29:03;98558.34;;;7.62;81.60
56241;BME280;42155;53.096;23.226;2023-03-31T02:31:20;98559.88;;;7.64;81.69
56241;BME280;42155;53.096;23.226;2023-03-31T02:33:21;98553.63;;;7.65;81.88
56241;BME280;42155;53.096;23.226;2023-03-31T02:35:22;98549.72;;;7.70;81.77
56241;BME280;42155;53.096;23.226;2023-03-31T02:37:23;98551.38;;;7.71;81.67
56241;BME280;42155;53.096;23.226;2023-03-31T02:39:28;98555.81;;;7.80;81.41
56241;BME280;42155;53.096;23.226;2023-03-31T02:41:30;98552.91;;;7.83;81.69
56241;BME280;42155;53.096;23.226;2023-03-31T02:43:31;98525.56;;;7.64;81.38
56241;BME280;42155;53.096;23.226;2023-03-31T02:47:41;98549.16;;;7.76;81.54
56241;BME280;42155;53.096;23.226;2023-03-31T02:49:52;98538.75;;;7.74;81.62
56241;BME280;42155;53.096;23.226;2023-03-31T02:52:05;98545.00;;;7.83;81.74
56241;BME280;42155;53.096;23.226;2023-03-31T02:54:21;98544.84;;;7.84;81.98
56241;BME280;42155;53.096;23.226;2023-03-31T02:58:41;98541.09;;;7.87;82.16
56241;BME280;42155;53.096;23.226;2023-03-31T03:05:17;98526.63;;;7.91;82.01
56241;BME280;42155;53.096;23.226;2023-03-31T03:07:35;98526.91;;;7.88;81.73
56241;BME280;42155;53.096;23.226;2023-03-31T03:12:06;98527.31;;;7.93;81.70
56241;BME280;42155;53.096;23.226;2023-03-31T03:18:16;98504.66;;;7.81;82.35
56241;BME280;42155;53.096;23.226;2023-03-31T03:20:19;98537.63;;;7.96;82.51
56241;BME280;42155;53.096;23.226;2023-03-31T03:22:20;98522.31;;;7.90;82.37
56241;BME280;42155;53.096;23.226;2023-03-31T03:24:20;98530.38;;;7.98;82.33
56241;BME280;42155;53.096;23.226;2023-03-31T03:26:22;98541.63;;;8.00;82.62
56241;BME280;42155;53.096;23.226;2023-03-31T03:28:22;98530.78;;;8.03;82.89
56241;BME280;42155;53.096;23.226;2023-03-31T03:30:22;98541.22;;;8.05;82.93
56241;BME280;42155;53.096;23.226;2023-03-31T03:32:23;98520.50;;;8.00;82.18
56241;BME280;42155;53.096;23.226;2023-03-31T03:34:23;98539.09;;;8.08;82.24
56241;BME280;42155;53.096;23.226;2023-03-31T03:36:23;98533.28;;;8.05;82.60
56241;BME280;42155;53.096;23.226;2023-03-31T03:38:24;98540.78;;;8.09;82.82
56241;BME280;42155;53.096;23.226;2023-03-31T03:40:24;98537.16;;;8.10;83.05
56241;BME280;42155;53.096;23.226;2023-03-31T03:42:25;98479.94;;;7.82;82.67
56241;BME280;42155;53.096;23.226;2023-03-31T03:44:25;98518.25;;;8.05;82.81
56241;BME280;42155;53.096;23.226;2023-03-31T03:46:26;98532.97;;;8.17;82.97
56241;BME280;42155;53.096;23.226;2023-03-31T03:48:26;98525.75;;;8.20;82.24
56241;BME280;42155;53.096;23.226;2023-03-31T03:50:26;98495.19;;;7.98;82.92
56241;BME280;42155;53.096;23.226;2023-03-31T03:52:27;98533.09;;;8.26;82.66
56241;BME280;42155;53.096;23.226;2023-03-31T03:54:27;98531.41;;;8.25;82.67
56241;BME280;42155;53.096;23.226;2023-03-31T03:56:28;98512.69;;;8.08;82.87
56241;BME280;42155;53.096;23.226;2023-03-31T03:58:28;98539.06;;;8.28;82.81
56241;BME280;42155;53.096;23.226;2023-03-31T04:00:28;98526.13;;;8.25;82.94
56241;BME280;42155;53.096;23.226;2023-03-31T04:02:29;98529.03;;;8.31;83.12
56241;BME280;42155;53.096;23.226;2023-03-31T04:04:29;98526.53;;;8.30;83.01
56241;BME280;42155;53.096;23.226;2023-03-31T04:06:29;98530.41;;;8.35;83.77
56241;BME280;42155;53.096;23.226;2023-03-31T04:08:30;98522.22;;;8.38;83.36
56241;BME280;42155;53.096;23.226;2023-03-31T04:10:30;98518.44;;;8.41;83.23
56241;BME280;42155;53.096;23.226;2023-03-31T04:12:33;98516.50;;;8.43;83.51
56241;BME280;42155;53.096;23.226;2023-03-31T04:14:34;98515.09;;;8.49;83.54
56241;BME280;42155;53.096;23.226;2023-03-31T04:16:34;98515.38;;;8.46;83.34
56241;BME280;42155;53.096;23.226;2023-03-31T04:18:34;98515.91;;;8.49;84.01
56241;BME280;42155;53.096;23.226;2023-03-31T04:20:38;98517.56;;;8.50;83.76
56241;BME280;42155;53.096;23.226;2023-03-31T04:22:38;98506.72;;;8.53;84.29
56241;BME280;42155;53.096;23.226;2023-03-31T04:24:38;98515.19;;;8.57;84.30
56241;BME280;42155;53.096;23.226;2023-03-31T04:26:39;98497.78;;;8.54;84.25
56241;BME280;42155;53.096;23.226;2023-03-31T04:28:39;98507.88;;;8.68;84.00
56241;BME280;42155;53.096;23.226;2023-03-31T04:30:40;98515.25;;;8.75;83.84
56241;BME280;42155;53.096;23.226;2023-03-31T04:32:40;98516.63;;;8.79;84.12
56241;BME280;42155;53.096;23.226;2023-03-31T04:34:40;98526.91;;;8.82;83.85
56241;BME280;42155;53.096;23.226;2023-03-31T04:36:43;98511.63;;;8.76;84.32
56241;BME280;42155;53.096;23.226;2023-03-31T04:38:48;98489.38;;;8.68;83.60
56241;BME280;42155;53.096;23.226;2023-03-31T04:40:50;98523.38;;;8.91;84.05
56241;BME280;42155;53.096;23.226;2023-03-31T04:42:51;98508.75;;;8.87;84.11
56241;BME280;42155;53.096;23.226;2023-03-31T04:44:51;98515.97;;;8.95;83.85
56241;BME280;42155;53.096;23.226;2023-03-31T04:46:52;98520.28;;;8.96;84.60
56241;BME280;42155;53.096;23.226;2023-03-31T04:48:52;98428.56;;;8.41;84.33
56241;BME280;42155;53.096;23.226;2023-03-31T04:50:53;98489.56;;;8.85;84.60
56241;BME280;42155;53.096;23.226;2023-03-31T04:52:53;98517.34;;;8.99;84.62
56241;BME280;42155;53.096;23.226;2023-03-31T04:54:53;98515.53;;;8.99;84.88
56241;BME280;42155;53.096;23.226;2023-03-31T04:56:54;98523.56;;;9.07;85.00
56241;BME280;42155;53.096;23.226;2023-03-31T04:58:54;98508.25;;;9.01;84.57
56241;BME280;42155;53.096;23.226;2023-03-31T05:00:54;98522.56;;;9.08;84.98
56241;BME280;42155;53.096;23.226;2023-03-31T05:02:55;98525.31;;;9.16;84.94
56241;BME280;42155;53.096;23.226;2023-03-31T05:04:55;98486.69;;;8.96;84.71
56241;BME280;42155;53.096;23.226;2023-03-31T05:06:56;98507.53;;;9.09;84.73
56241;BME280;42155;53.096;23.226;2023-03-31T05:08:56;98545.13;;;9.30;84.60
56241;BME280;42155;53.096;23.226;2023-03-31T05:10:56;98500.50;;;9.17;84.41
56241;BME280;42155;53.096;23.226;2023-03-31T05:12:57;98522.97;;;9.31;84.64
56241;BME280;42155;53.096;23.226;2023-03-31T05:14:57;98489.53;;;9.12;84.41
56241;BME280;42155;53.096;23.226;2023-03-31T05:16:57;98525.16;;;9.36;84.58
56241;BME280;42155;53.096;23.226;2023-03-31T05:18:58;98496.28;;;9.25;84.57
56241;BME280;42155;53.096;23.226;2023-03-31T05:21:11;98467.63;;;9.20;84.66
56241;BME280;42155;53.096;23.226;2023-03-31T05:23:12;98495.06;;;9.37;84.61
56241;BME280;42155;53.096;23.226;2023-03-31T05:25:13;98518.34;;;9.51;84.75
56241;BME280;42155;53.096;23.226;2023-03-31T05:27:14;98520.25;;;9.59;84.69
56241;BME280;42155;53.096;23.226;2023-03-31T05:29:15;98507.38;;;9.64;84.08
56241;BME280;42155;53.096;23.226;2023-03-31T05:31:16;98518.16;;;9.70;84.22
56241;BME280;42155;53.096;23.226;2023-03-31T05:33:16;98510.91;;;9.73;83.94
56241;BME280;42155;53.096;23.226;2023-03-31T05:35:17;98524.25;;;9.81;83.76
56241;BME280;42155;53.096;23.226;2023-03-31T05:37:19;98504.94;;;9.70;84.02
56241;BME280;42155;53.096;23.226;2023-03-31T05:39:19;98510.63;;;9.76;83.87
56241;BME280;42155;53.096;23.226;2023-03-31T05:41:20;98511.28;;;9.78;83.92
56241;BME280;42155;53.096;23.226;2023-03-31T05:43:21;98513.31;;;9.84;84.06
56241;BME280;42155;53.096;23.226;2023-03-31T05:45:22;98519.31;;;9.86;83.87
56241;BME280;42155;53.096;23.226;2023-03-31T05:47:22;98442.94;;;9.37;84.04
56241;BME280;42155;53.096;23.226;2023-03-31T05:49:22;98509.31;;;9.80;84.06
56241;BME280;42155;53.096;23.226;2023-03-31T05:51:23;98506.66;;;9.80;84.43
56241;BME280;42155;53.096;23.226;2023-03-31T05:53:25;98519.38;;;9.94;84.35
56241;BME280;42155;53.096;23.226;2023-03-31T05:55:25;98510.44;;;9.95;84.25
56241;BME280;42155;53.096;23.226;2023-03-31T05:57:26;98521.09;;;10.03;83.87
56241;BME280;42155;53.096;23.226;2023-03-31T05:59:26;98523.75;;;10.03;83.44
56241;BME280;42155;53.096;23.226;2023-03-31T06:01:26;98519.28;;;10.04;84.26
56241;BME280;42155;53.096;23.226;2023-03-31T06:03:27;98490.81;;;9.88;83.93
56241;BME280;42155;53.096;23.226;2023-03-31T06:05:27;98534.72;;;10.08;84.17
56241;BME280;42155;53.096;23.226;2023-03-31T06:07:28;98518.06;;;9.98;83.86
56241;BME280;42155;53.096;23.226;2023-03-31T06:09:28;98522.38;;;9.99;83.83
56241;BME280;42155;53.096;23.226;2023-03-31T06:11:29;98525.25;;;10.06;83.79
56241;BME280;42155;53.096;23.226;2023-03-31T06:13:29;98498.19;;;9.94;83.56
56241;BME280;42155;53.096;23.226;2023-03-31T06:15:29;98517.59;;;10.03;84.01
56241;BME280;42155;53.096;23.226;2023-03-31T06:17:30;98529.03;;;10.03;84.04
56241;BME280;42155;53.096;23.226;2023-03-31T06:19:30;98512.09;;;9.96;84.13
56241;BME280;42155;53.096;23.226;2023-03-31T06:21:31;98530.00;;;10.02;83.74
56241;BME280;42155;53.096;23.226;2023-03-31T06:23:32;98524.34;;;9.97;84.06
56241;BME280;42155;53.096;23.226;2023-03-31T06:25:32;98539.03;;;10.09;83.79
56241;BME280;42155;53.096;23.226;2023-03-31T06:27:33;98517.22;;;9.98;83.41
56241;BME280;42155;53.096;23.226;2023-03-31T06:29:33;98514.44;;;9.99;83.79
56241;BME280;42155;53.096;23.226;2023-03-31T06:31:33;98533.09;;;10.15;83.12
56241;BME280;42155;53.096;23.226;2023-03-31T06:33:34;98518.13;;;10.06;83.08
56241;BME280;42155;53.096;23.226;2023-03-31T06:35:39;98537.34;;;10.26;83.16
56241;BME280;42155;53.096;23.226;2023-03-31T06:37:40;98547.78;;;10.28;82.94
56241;BME280;42155;53.096;23.226;2023-03-31T06:39:40;98547.16;;;10.34;82.96
56241;BME280;42155;53.096;23.226;2023-03-31T06:41:40;98540.09;;;10.42;82.96
56241;BME280;42155;53.096;23.226;2023-03-31T06:43:41;98538.97;;;10.53;82.38
56241;BME280;42155;53.096;23.226;2023-03-31T06:45:41;98551.63;;;10.59;81.77
56241;BME280;42155;53.096;23.226;2023-03-31T06:47:41;98544.84;;;10.65;81.83
56241;BME280;42155;53.096;23.226;2023-03-31T06:49:42;98545.38;;;10.68;82.21
56241;BME280;42155;53.096;23.226;2023-03-31T06:51:42;98552.50;;;10.76;81.59
56241;BME280;42155;53.096;23.226;2023-03-31T06:53:42;98544.75;;;10.83;81.60
56241;BME280;42155;53.096;23.226;2023-03-31T06:55:43;98550.41;;;10.88;81.37
56241;BME280;42155;53.096;23.226;2023-03-31T06:57:43;98553.41;;;10.93;81.22
56241;BME280;42155;53.096;23.226;2023-03-31T06:59:44;98558.75;;;11.01;81.34
56241;BME280;42155;53.096;23.226;2023-03-31T07:01:44;98555.78;;;11.04;81.01
56241;BME280;42155;53.096;23.226;2023-03-31T07:03:44;98553.81;;;11.06;80.46
56241;BME280;42155;53.096;23.226;2023-03-31T07:05:49;98545.50;;;11.01;80.33
56241;BME280;42155;53.096;23.226;2023-03-31T07:07:49;98539.66;;;10.98;80.07
56241;BME280;42155;53.096;23.226;2023-03-31T07:09:50;98555.66;;;11.14;80.15
56241;BME280;42155;53.096;23.226;2023-03-31T07:11:50;98551.19;;;11.14;79.72
56241;BME280;42155;53.096;23.226;2023-03-31T07:13:50;98557.97;;;11.17;79.50
56241;BME280;42155;53.096;23.226;2023-03-31T07:15:51;98533.25;;;11.16;79.31
56241;BME280;42155;53.096;23.226;2023-03-31T07:17:51;98558.72;;;11.52;78.96
56241;BME280;42155;53.096;23.226;2023-03-31T07:19:52;98545.94;;;11.63;78.66
56241;BME280;42155;53.096;23.226;2023-03-31T07:21:52;98551.59;;;11.68;78.04
56241;BME280;42155;53.096;23.226;2023-03-31T07:23:52;98562.09;;;11.70;78.08
56241;BME280;42155;53.096;23.226;2023-03-31T07:25:53;98555.91;;;11.78;77.99
56241;BME280;42155;53.096;23.226;2023-03-31T07:27:53;98556.47;;;11.89;77.80
56241;BME280;42155;53.096;23.226;2023-03-31T07:29:53;98523.06;;;11.79;77.31
56241;BME280;42155;53.096;23.226;2023-03-31T07:31:54;98498.63;;;11.67;76.82
56241;BME280;42155;53.096;23.226;2023-03-31T07:33:54;98555.63;;;12.05;76.53
56241;BME280;42155;53.096;23.226;2023-03-31T07:35:54;98560.44;;;12.02;76.73
56241;BME280;42155;53.096;23.226;2023-03-31T07:37:55;98509.41;;;11.73;76.53
56241;BME280;42155;53.096;23.226;2023-03-31T07:39:55;98537.69;;;11.99;76.81
56241;BME280;42155;53.096;23.226;2023-03-31T07:41:55;98560.94;;;12.21;76.29
56241;BME280;42155;53.096;23.226;2023-03-31T07:43:56;98547.28;;;12.33;75.85
56241;BME280;42155;53.096;23.226;2023-03-31T07:45:56;98533.56;;;12.60;75.43
56241;BME280;42155;53.096;23.226;2023-03-31T07:47:57;98546.78;;;12.85;74.66
56241;BME280;42155;53.096;23.226;2023-03-31T07:49:57;98538.78;;;12.93;74.37
56241;BME280;42155;53.096;23.226;2023-03-31T07:51:58;98535.94;;;12.94;74.40
56241;BME280;42155;53.096;23.226;2023-03-31T07:53:58;98533.81;;;12.90;73.88
56241;BME280;42155;53.096;23.226;2023-03-31T07:55:59;98534.66;;;12.82;73.83
56241;BME280;42155;53.096;23.226;2023-03-31T07:57:59;98544.38;;;12.67;74.00
56241;BME280;42155;53.096;23.226;2023-03-31T07:59:59;98533.44;;;12.54;74.20
56241;BME280;42155;53.096;23.226;2023-03-31T08:02:00;98535.28;;;12.45;74.83
56241;BME280;42155;53.096;23.226;2023-03-31T08:04:00;98504.91;;;12.31;74.80
56241;BME280;42155;53.096;23.226;2023-03-31T08:06:00;98535.50;;;12.74;74.64
56241;BME280;42155;53.096;23.226;2023-03-31T08:08:01;98523.91;;;12.98;74.08
56241;BME280;42155;53.096;23.226;2023-03-31T08:10:04;98484.19;;;12.89;73.14
56241;BME280;42155;53.096;23.226;2023-03-31T08:12:05;98530.19;;;13.22;72.81
56241;BME280;42155;53.096;23.226;2023-03-31T08:14:05;98524.34;;;13.27;72.80
56241;BME280;42155;53.096;23.226;2023-03-31T08:16:06;98529.69;;;13.10;72.69
56241;BME280;42155;53.096;23.226;2023-03-31T08:18:06;98523.78;;;13.00;72.81
56241;BME280;42155;53.096;23.226;2023-03-31T08:20:08;98532.56;;;13.09;72.70
56241;BME280;42155;53.096;23.226;2023-03-31T08:22:08;98523.56;;;13.41;72.65
56241;BME280;42155;53.096;23.226;2023-03-31T08:24:09;98513.22;;;13.69;71.38
56241;BME280;42155;53.096;23.226;2023-03-31T08:26:12;98522.66;;;13.94;70.63
56241;BME280;42155;53.096;23.226;2023-03-31T08:28:13;98513.41;;;14.05;69.99
56241;BME280;42155;53.096;23.226;2023-03-31T08:30:14;98516.22;;;14.04;69.05
56241;BME280;42155;53.096;23.226;2023-03-31T08:32:14;98512.81;;;13.95;69.12
56241;BME280;42155;53.096;23.226;2023-03-31T08:34:14;98494.09;;;13.80;69.07
56241;BME280;42155;53.096;23.226;2023-03-31T08:36:15;98501.81;;;13.75;69.29
56241;BME280;42155;53.096;23.226;2023-03-31T08:38:15;98480.16;;;13.55;69.04
56241;BME280;42155;53.096;23.226;2023-03-31T08:40:20;98510.22;;;13.87;69.13
56241;BME280;42155;53.096;23.226;2023-03-31T08:42:40;98509.34;;;14.09;68.87
56241;BME280;42155;53.096;23.226;2023-03-31T08:44:59;98504.41;;;14.21;68.45
56241;BME280;42155;53.096;23.226;2023-03-31T08:47:04;98511.59;;;14.35;67.73
56241;BME280;42155;53.096;23.226;2023-03-31T08:49:06;98499.25;;;14.34;67.39
56241;BME280;42155;53.096;23.226;2023-03-31T08:53:24;98504.63;;;14.49;66.17
56241;BME280;42155;53.096;23.226;2023-03-31T08:55:30;98484.63;;;14.45;66.48
56241;BME280;42155;53.096;23.226;2023-03-31T08:58:08;98508.88;;;14.58;66.18
56241;BME280;42155;53.096;23.226;2023-03-31T09:00:15;98516.97;;;14.50;66.31
56241;BME280;42155;53.096;23.226;2023-03-31T09:02:58;98494.19;;;14.39;66.66
56241;BME280;42155;53.096;23.226;2023-03-31T09:07:39;98508.44;;;14.46;66.03
56241;BME280;42155;53.096;23.226;2023-03-31T09:09:58;98505.69;;;14.40;65.72
56241;BME280;42155;53.096;23.226;2023-03-31T09:12:09;98509.38;;;14.39;66.14
56241;BME280;42155;53.096;23.226;2023-03-31T09:18:38;98501.50;;;14.60;65.49
56241;BME280;42155;53.096;23.226;2023-03-31T09:20:39;98466.69;;;14.68;65.12
56241;BME280;42155;53.096;23.226;2023-03-31T09:22:46;98470.41;;;15.03;64.57
56241;BME280;42155;53.096;23.226;2023-03-31T09:24:55;98487.56;;;15.31;64.16
56241;BME280;42155;53.096;23.226;2023-03-31T09:27:10;98461.34;;;15.41;63.23
56241;BME280;42155;53.096;23.226;2023-03-31T09:29:16;98497.00;;;15.69;62.97
56241;BME280;42155;53.096;23.226;2023-03-31T09:31:19;98485.03;;;15.65;62.89
56241;BME280;42155;53.096;23.226;2023-03-31T09:33:26;98491.41;;;15.64;62.80
56241;BME280;42155;53.096;23.226;2023-03-31T09:35:27;98484.31;;;15.57;62.05
56241;BME280;42155;53.096;23.226;2023-03-31T09:37:30;98490.63;;;15.49;61.98
56241;BME280;42155;53.096;23.226;2023-03-31T09:39:31;98465.06;;;15.25;62.42
56241;BME280;42155;53.096;23.226;2023-03-31T09:41:31;98490.16;;;15.45;62.45
56241;BME280;42155;53.096;23.226;2023-03-31T09:43:32;98486.84;;;15.43;62.00
56241;BME280;42155;53.096;23.226;2023-03-31T09:45:33;98486.41;;;15.40;61.85
56241;BME280;42155;53.096;23.226;2023-03-31T09:47:37;98493.16;;;15.36;62.25
56241;BME280;42155;53.096;23.226;2023-03-31T09:49:39;98487.09;;;15.27;62.12
56241;BME280;42155;53.096;23.226;2023-03-31T09:51:45;98473.94;;;15.25;62.20
56241;BME280;42155;53.096;23.226;2023-03-31T09:58:43;98473.94;;;15.25;61.96
56241;BME280;42155;53.096;23.226;2023-03-31T10:01:04;98487.00;;;15.20;62.12
56241;BME280;42155;53.096;23.226;2023-03-31T10:03:06;98485.00;;;15.22;62.58
56241;BME280;42155;53.096;23.226;2023-03-31T10:05:38;98482.59;;;15.27;62.48
56241;BME280;42155;53.096;23.226;2023-03-31T10:07:37;98483.03;;;15.31;61.97
56241;BME280;42155;53.096;23.226;2023-03-31T10:09:38;98465.63;;;15.20;61.97
56241;BME280;42155;53.096;23.226;2023-03-31T10:11:51;98473.66;;;15.20;62.07
56241;BME280;42155;53.096;23.226;2023-03-31T10:16:05;98466.97;;;15.10;62.21
56241;BME280;42155;53.096;23.226;2023-03-31T10:18:05;98485.22;;;15.06;62.02
56241;BME280;42155;53.096;23.226;2023-03-31T10:20:20;98478.81;;;14.86;62.68
56241;BME280;42155;53.096;23.226;2023-03-31T10:24:22;98444.59;;;14.74;63.17
56241;BME280;42155;53.096;23.226;2023-03-31T10:26:26;98469.72;;;15.16;62.43
56241;BME280;42155;53.096;23.226;2023-03-31T10:28:31;98472.66;;;15.43;62.00
56241;BME280;42155;53.096;23.226;2023-03-31T10:30:34;98461.84;;;15.51;61.14
56241;BME280;42155;53.096;23.226;2023-03-31T10:32:40;98469.34;;;15.62;61.40
56241;BME280;42155;53.096;23.226;2023-03-31T10:34:42;98462.94;;;15.78;61.37
56241;BME280;42155;53.096;23.226;2023-03-31T10:36:47;98453.94;;;15.86;60.86
56241;BME280;42155;53.096;23.226;2023-03-31T10:38:49;98461.19;;;15.92;60.63
56241;BME280;42155;53.096;23.226;2023-03-31T10:40:54;98423.97;;;15.69;60.35
56241;BME280;42155;53.096;23.226;2023-03-31T10:43:13;98403.00;;;15.51;60.23
56241;BME280;42155;53.096;23.226;2023-03-31T10:45:29;98459.59;;;15.76;59.65
56241;BME280;42155;53.096;23.226;2023-03-31T10:47:32;98461.91;;;15.58;60.57
56241;BME280;42155;53.096;23.226;2023-03-31T10:49:37;98456.34;;;15.38;60.78
56241;BME280;42155;53.096;23.226;2023-03-31T10:51:48;98459.47;;;15.20;61.36
56241;BME280;42155;53.096;23.226;2023-03-31T10:53:51;98463.56;;;15.01;61.22
56241;BME280;42155;53.096;23.226;2023-03-31T10:56:40;98464.53;;;14.93;61.70
56241;BME280;42155;53.096;23.226;2023-03-31T11:03:34;98455.44;;;14.73;62.59
56241;BME280;42155;53.096;23.226;2023-03-31T11:10:23;98445.72;;;14.65;62.99
56241;BME280;42155;53.096;23.226;2023-03-31T11:12:27;98448.19;;;14.67;62.57
56241;BME280;42155;53.096;23.226;2023-03-31T11:19:29;98436.16;;;14.56;63.16
56241;BME280;42155;53.096;23.226;2023-03-31T11:23:42;98430.81;;;14.56;62.24
56241;BME280;42155;53.096;23.226;2023-03-31T11:30:32;98389.22;;;14.17;61.86
56241;BME280;42155;53.096;23.226;2023-03-31T11:35:22;98428.84;;;14.35;61.94
56241;BME280;42155;53.096;23.226;2023-03-31T11:37:39;98416.34;;;14.21;62.21
56241;BME280;42155;53.096;23.226;2023-03-31T11:39:56;98424.56;;;14.19;61.75
56241;BME280;42155;53.096;23.226;2023-03-31T11:42:04;98424.63;;;14.11;62.18
56241;BME280;42155;53.096;23.226;2023-03-31T11:44:12;98421.97;;;14.11;62.06
56241;BME280;42155;53.096;23.226;2023-03-31T11:48:21;98419.66;;;14.08;61.95
56241;BME280;42155;53.096;23.226;2023-03-31T11:50:26;98415.63;;;14.12;62.51
56241;BME280;42155;53.096;23.226;2023-03-31T11:52:40;98413.88;;;14.19;62.20
56241;BME280;42155;53.096;23.226;2023-03-31T11:56:52;98412.50;;;14.53;61.20
56241;BME280;42155;53.096;23.226;2023-03-31T11:58:56;98405.47;;;14.67;61.21
56241;BME280;42155;53.096;23.226;2023-03-31T12:01:05;98384.25;;;14.80;61.01
56241;BME280;42155;53.096;23.226;2023-03-31T12:03:22;98398.84;;;14.99;59.93
56241;BME280;42155;53.096;23.226;2023-03-31T12:05:26;98385.63;;;15.12;59.44
56241;BME280;42155;53.096;23.226;2023-03-31T12:09:52;98373.00;;;15.27;58.97
56241;BME280;42155;53.096;23.226;2023-03-31T12:12:36;98389.16;;;15.41;59.70
56241;BME280;42155;53.096;23.226;2023-03-31T12:14:49;98373.47;;;15.59;59.03
56241;BME280;42155;53.096;23.226;2023-03-31T12:16:57;98369.50;;;15.76;58.86
56241;BME280;42155;53.096;23.226;2023-03-31T12:19:10;98376.84;;;15.96;58.29
56241;BME280;42155;53.096;23.226;2023-03-31T12:21:13;98369.28;;;16.06;58.17
56241;BME280;42155;53.096;23.226;2023-03-31T12:23:18;98354.03;;;16.00;57.64